sensor_id;sensor_type;location;lat;lon;timestamp;pressure;altitude;pressure_sealevel;temperature;humidity
29825;BME280;16713;52.916;12.834;2023-11-21T00:02:22;100326.97;;;8.60;73.75
29825;BME280;16713;52.916;12.834;2023-11-21T00:04:50;100322.22;;;8.57;74.69
29825;BME280;16713;52.916;12.834;2023-11-21T00:07:16;100330.16;;;8.62;75.15
29825;BME280;16713;52.916;12.834;2023-11-21T00:09:43;100324.59;;;8.58;74.60
29825;BME280;16713;52.916;12.834;2023-11-21T00:12:10;100331.66;;;8.59;74.52
29825;BME280;16713;52.916;12.834;2023-11-21T00:14:37;100326.59;;;8.46;74.56
29825;BME280;16713;52.916;12.834;2023-11-21T00:17:04;100324.31;;;8.48;73.52
29825;BME280;16713;52.916;12.834;2023-11-21T00:19:32;100326.09;;;8.56;75.47
29825;BME280;16713;52.916;12.834;2023-11-21T00:21:59;100326.00;;;8.52;75.43
29825;BME280;16713;52.916;12.834;2023-11-21T00:24:26;100335.78;;;8.53;75.28
29825;BME280;16713;52.916;12.834;2023-11-21T00:26:53;100326.53;;;8.58;75.64
29825;BME280;16713;52.916;12.834;2023-11-21T00:29:19;100327.56;;;8.53;74.11
29825;BME280;16713;52.916;12.834;2023-11-21T00:31:46;100338.59;;;8.57;74.62
29825;BME280;16713;52.916;12.834;2023-11-21T00:34:12;100340.47;;;8.53;72.92
29825;BME280;16713;52.916;12.834;2023-11-21T00:36:40;100345.56;;;8.54;73.99
29825;BME280;16713;52.916;12.834;2023-11-21T00:39:06;100354.56;;;8.55;72.85
29825;BME280;16713;52.916;12.834;2023-11-21T00:41:33;100355.72;;;8.54;74.31
29825;BME280;16713;52.916;12.834;2023-11-21T00:44:00;100355.34;;;8.55;74.27
29825;BME280;16713;52.916;12.834;2023-11-21T00:46:27;100357.28;;;8.55;73.17
29825;BME280;16713;52.916;12.834;2023-11-21T00:48:55;100366.41;;;8.59;73.54
29825;BME280;16713;52.916;12.834;2023-11-21T00:51:22;100360.72;;;8.52;73.51
29825;BME280;16713;52.916;12.834;2023-11-21T00:53:48;100367.34;;;8.51;74.19
29825;BME280;16713;52.916;12.834;2023-11-21T00:56:15;100370.31;;;8.46;74.50
29825;BME280;16713;52.916;12.834;2023-11-21T00:58:42;100372.72;;;8.47;74.20
29825;BME280;16713;52.916;12.834;2023-11-21T01:01:12;100367.69;;;8.49;72.76
29825;BME280;16713;52.916;12.834;2023-11-21T01:03:39;100368.63;;;8.41;73.34
29825;BME280;16713;52.916;12.834;2023-11-21T01:06:06;100385.13;;;8.45;74.36
29825;BME280;16713;52.916;12.834;2023-11-21T01:08:34;100379.47;;;8.38;74.24
29825;BME280;16713;52.916;12.834;2023-11-21T01:11:02;100385.28;;;8.36;72.75
29825;BME280;16713;52.916;12.834;2023-11-21T01:13:29;100379.25;;;8.31;72.55
29825;BME280;16713;52.916;12.834;2023-11-21T01:15:56;100387.03;;;8.29;73.67
29825;BME280;16713;52.916;12.834;2023-11-21T01:18:23;100382.00;;;8.31;74.05
29825;BME280;16713;52.916;12.834;2023-11-21T01:20:52;100394.75;;;8.27;73.63
29825;BME280;16713;52.916;12.834;2023-11-21T01:23:20;100392.63;;;8.20;73.91
29825;BME280;16713;52.916;12.834;2023-11-21T01:25:46;100389.88;;;8.20;72.88
29825;BME280;16713;52.916;12.834;2023-11-21T01:28:13;100388.91;;;8.13;75.16
29825;BME280;16713;52.916;12.834;2023-11-21T01:30:40;100392.16;;;8.18;74.47
29825;BME280;16713;52.916;12.834;2023-11-21T01:33:06;100392.97;;;8.19;74.02
29825;BME280;16713;52.916;12.834;2023-11-21T01:35:33;100396.16;;;8.21;73.32
29825;BME280;16713;52.916;12.834;2023-11-21T01:38:00;100386.69;;;8.18;73.96
29825;BME280;16713;52.916;12.834;2023-11-21T01:40:26;100387.25;;;8.24;73.82
29825;BME280;16713;52.916;12.834;2023-11-21T01:42:55;100390.09;;;8.27;75.02
29825;BME280;16713;52.916;12.834;2023-11-21T01:45:22;100386.13;;;8.25;74.14
29825;BME280;16713;52.916;12.834;2023-11-21T01:47:48;100388.56;;;8.14;74.20
29825;BME280;16713;52.916;12.834;2023-11-21T01:50:16;100402.97;;;8.27;73.08
29825;BME280;16713;52.916;12.834;2023-11-21T01:52:45;100396.28;;;8.24;74.40
29825;BME280;16713;52.916;12.834;2023-11-21T01:55:14;100405.34;;;8.28;73.78
29825;BME280;16713;52.916;12.834;2023-11-21T01:57:54;100403.25;;;8.10;73.73
29825;BME280;16713;52.916;12.834;2023-11-21T02:00:21;100410.06;;;8.16;74.10
29825;BME280;16713;52.916;12.834;2023-11-21T02:02:51;100416.91;;;8.10;72.27
29825;BME280;16713;52.916;12.834;2023-11-21T02:05:18;100414.19;;;8.10;73.20
29825;BME280;16713;52.916;12.834;2023-11-21T02:07:46;100424.50;;;8.16;72.85
29825;BME280;16713;52.916;12.834;2023-11-21T02:10:16;100427.13;;;8.13;73.91
29825;BME280;16713;52.916;12.834;2023-11-21T02:12:43;100431.34;;;8.10;72.45
29825;BME280;16713;52.916;12.834;2023-11-21T02:15:15;100423.72;;;8.04;73.46
29825;BME280;16713;52.916;12.834;2023-11-21T02:17:42;100433.41;;;8.01;73.91
29825;BME280;16713;52.916;12.834;2023-11-21T02:20:13;100437.72;;;8.02;74.30
29825;BME280;16713;52.916;12.834;2023-11-21T02:22:49;100444.09;;;7.94;73.62
29825;BME280;16713;52.916;12.834;2023-11-21T02:25:15;100441.50;;;7.98;73.67
29825;BME280;16713;52.916;12.834;2023-11-21T02:27:42;100445.25;;;7.93;72.58
29825;BME280;16713;52.916;12.834;2023-11-21T02:30:09;100436.25;;;7.93;72.26
29825;BME280;16713;52.916;12.834;2023-11-21T02:32:39;100432.38;;;7.82;74.17
29825;BME280;16713;52.916;12.834;2023-11-21T02:35:15;100443.00;;;7.95;72.36
29825;BME280;16713;52.916;12.834;2023-11-21T02:37:44;100430.13;;;7.84;73.88
29825;BME280;16713;52.916;12.834;2023-11-21T02:40:11;100433.28;;;7.73;73.50
29825;BME280;16713;52.916;12.834;2023-11-21T02:42:39;100434.31;;;7.69;73.17
29825;BME280;16713;52.916;12.834;2023-11-21T02:45:07;100438.06;;;7.76;72.77
29825;BME280;16713;52.916;12.834;2023-11-21T02:47:34;100438.53;;;7.78;73.15
29825;BME280;16713;52.916;12.834;2023-11-21T02:50:01;100430.34;;;7.78;72.18
29825;BME280;16713;52.916;12.834;2023-11-21T02:52:28;100438.41;;;7.75;73.31
29825;BME280;16713;52.916;12.834;2023-11-21T02:54:54;100432.06;;;7.71;72.90
29825;BME280;16713;52.916;12.834;2023-11-21T02:57:21;100434.22;;;7.77;72.82
29825;BME280;16713;52.916;12.834;2023-11-21T02:59:47;100436.94;;;7.77;72.47
29825;BME280;16713;52.916;12.834;2023-11-21T03:02:14;100452.63;;;7.81;73.38
29825;BME280;16713;52.916;12.834;2023-11-21T03:04:42;100457.44;;;7.84;73.74
29825;BME280;16713;52.916;12.834;2023-11-21T03:07:09;100452.97;;;7.79;72.05
29825;BME280;16713;52.916;12.834;2023-11-21T03:09:36;100461.75;;;7.72;71.78
29825;BME280;16713;52.916;12.834;2023-11-21T03:12:02;100460.13;;;7.71;72.99
29825;BME280;16713;52.916;12.834;2023-11-21T03:14:29;100459.78;;;7.73;71.15
29825;BME280;16713;52.916;12.834;2023-11-21T03:16:55;100465.38;;;7.64;72.44
29825;BME280;16713;52.916;12.834;2023-11-21T03:19:23;100470.69;;;7.73;71.75
29825;BME280;16713;52.916;12.834;2023-11-21T03:21:50;100469.69;;;7.77;71.26
29825;BME280;16713;52.916;12.834;2023-11-21T03:24:19;100476.06;;;7.82;71.68
29825;BME280;16713;52.916;12.834;2023-11-21T03:26:46;100481.66;;;7.85;72.26
29825;BME280;16713;52.916;12.834;2023-11-21T03:29:13;100477.56;;;7.79;73.03
29825;BME280;16713;52.916;12.834;2023-11-21T03:31:40;100495.31;;;7.85;72.06
29825;BME280;16713;52.916;12.834;2023-11-21T03:34:14;100489.06;;;7.85;72.52
29825;BME280;16713;52.916;12.834;2023-11-21T03:36:41;100494.97;;;7.87;72.79
29825;BME280;16713;52.916;12.834;2023-11-21T03:39:08;100499.19;;;7.84;72.82
29825;BME280;16713;52.916;12.834;2023-11-21T03:41:34;100503.97;;;7.87;71.65
29825;BME280;16713;52.916;12.834;2023-11-21T03:44:01;100504.16;;;7.82;71.90
29825;BME280;16713;52.916;12.834;2023-11-21T03:46:28;100504.75;;;7.88;71.46
29825;BME280;16713;52.916;12.834;2023-11-21T03:48:55;100512.50;;;7.86;72.83
29825;BME280;16713;52.916;12.834;2023-11-21T03:51:22;100505.09;;;7.86;72.61
29825;BME280;16713;52.916;12.834;2023-11-21T03:53:48;100516.00;;;7.86;71.36
29825;BME280;16713;52.916;12.834;2023-11-21T03:56:15;100511.81;;;7.89;71.77
29825;BME280;16713;52.916;12.834;2023-11-21T03:58:41;100516.47;;;7.88;72.56
29825;BME280;16713;52.916;12.834;2023-11-21T04:01:08;100517.69;;;7.78;71.87
29825;BME280;16713;52.916;12.834;2023-11-21T04:03:34;100530.66;;;7.82;71.60
29825;BME280;16713;52.916;12.834;2023-11-21T04:06:01;100526.16;;;7.86;71.48
29825;BME280;16713;52.916;12.834;2023-11-21T04:08:27;100530.66;;;7.82;71.72
29825;BME280;16713;52.916;12.834;2023-11-21T04:10:54;100533.28;;;7.78;71.61
29825;BME280;16713;52.916;12.834;2023-11-21T04:13:22;100537.16;;;7.77;72.40
29825;BME280;16713;52.916;12.834;2023-11-21T04:15:48;100539.88;;;7.77;71.68
29825;BME280;16713;52.916;12.834;2023-11-21T04:18:15;100540.91;;;7.72;71.64
29825;BME280;16713;52.916;12.834;2023-11-21T04:20:41;100545.34;;;7.77;71.60
29825;BME280;16713;52.916;12.834;2023-11-21T04:23:08;100555.09;;;7.78;73.02
29825;BME280;16713;52.916;12.834;2023-11-21T04:25:36;100554.56;;;7.72;72.78
29825;BME280;16713;52.916;12.834;2023-11-21T04:28:03;100560.91;;;7.76;72.14
29825;BME280;16713;52.916;12.834;2023-11-21T04:30:30;100562.69;;;7.60;72.16
29825;BME280;16713;52.916;12.834;2023-11-21T04:32:57;100570.41;;;7.58;72.16
29825;BME280;16713;52.916;12.834;2023-11-21T04:35:24;100574.50;;;7.52;72.72
29825;BME280;16713;52.916;12.834;2023-11-21T04:37:50;100570.75;;;7.57;71.34
29825;BME280;16713;52.916;12.834;2023-11-21T04:40:17;100568.84;;;7.57;72.02
29825;BME280;16713;52.916;12.834;2023-11-21T04:42:44;100571.09;;;7.55;71.72
29825;BME280;16713;52.916;12.834;2023-11-21T04:45:10;100572.72;;;7.56;70.80
29825;BME280;16713;52.916;12.834;2023-11-21T04:47:39;100576.47;;;7.52;70.92
29825;BME280;16713;52.916;12.834;2023-11-21T04:50:06;100572.25;;;7.54;71.22
29825;BME280;16713;52.916;12.834;2023-11-21T04:52:32;100570.34;;;7.34;71.57
29825;BME280;16713;52.916;12.834;2023-11-21T04:54:59;100583.91;;;7.43;70.60
29825;BME280;16713;52.916;12.834;2023-11-21T04:57:28;100579.59;;;7.42;71.00
29825;BME280;16713;52.916;12.834;2023-11-21T04:59:55;100583.44;;;7.41;71.12
29825;BME280;16713;52.916;12.834;2023-11-21T05:02:21;100590.53;;;7.42;70.68
29825;BME280;16713;52.916;12.834;2023-11-21T05:05:01;100603.09;;;7.34;70.64
29825;BME280;16713;52.916;12.834;2023-11-21T05:07:28;100611.66;;;7.45;70.72
29825;BME280;16713;52.916;12.834;2023-11-21T05:09:58;100606.88;;;7.42;70.65
29825;BME280;16713;52.916;12.834;2023-11-21T05:12:24;100611.06;;;7.39;71.50
29825;BME280;16713;52.916;12.834;2023-11-21T05:14:51;100614.81;;;7.35;70.50
29825;BME280;16713;52.916;12.834;2023-11-21T05:17:17;100612.28;;;7.30;70.65
29825;BME280;16713;52.916;12.834;2023-11-21T05:19:44;100622.75;;;7.28;72.18
29825;BME280;16713;52.916;12.834;2023-11-21T05:22:15;100632.53;;;7.29;70.68
29825;BME280;16713;52.916;12.834;2023-11-21T05:24:42;100630.19;;;7.19;71.29
29825;BME280;16713;52.916;12.834;2023-11-21T05:27:08;100636.25;;;7.24;71.49
29825;BME280;16713;52.916;12.834;2023-11-21T05:29:36;100637.78;;;7.34;71.36
29825;BME280;16713;52.916;12.834;2023-11-21T05:32:04;100635.63;;;7.39;71.14
29825;BME280;16713;52.916;12.834;2023-11-21T05:34:31;100641.75;;;7.36;70.61
29825;BME280;16713;52.916;12.834;2023-11-21T05:40:08;100653.59;;;7.40;71.50
29825;BME280;16713;52.916;12.834;2023-11-21T05:42:35;100657.13;;;7.41;70.81
29825;BME280;16713;52.916;12.834;2023-11-21T05:45:02;100657.91;;;7.41;70.60
29825;BME280;16713;52.916;12.834;2023-11-21T05:47:38;100663.38;;;7.41;69.63
29825;BME280;16713;52.916;12.834;2023-11-21T05:50:08;100669.84;;;7.37;69.38
29825;BME280;16713;52.916;12.834;2023-11-21T05:52:45;100669.50;;;7.38;70.53
29825;BME280;16713;52.916;12.834;2023-11-21T05:55:12;100668.84;;;7.41;70.98
29825;BME280;16713;52.916;12.834;2023-11-21T05:57:42;100674.28;;;7.41;70.95
29825;BME280;16713;52.916;12.834;2023-11-21T06:00:14;100690.38;;;7.34;70.60
29825;BME280;16713;52.916;12.834;2023-11-21T06:02:49;100686.88;;;7.34;69.54
29825;BME280;16713;52.916;12.834;2023-11-21T06:05:25;100688.84;;;7.25;69.63
29825;BME280;16713;52.916;12.834;2023-11-21T06:07:53;100689.59;;;7.34;69.71
29825;BME280;16713;52.916;12.834;2023-11-21T06:10:21;100692.41;;;7.25;69.67
29825;BME280;16713;52.916;12.834;2023-11-21T06:12:48;100701.06;;;7.27;68.98
29825;BME280;16713;52.916;12.834;2023-11-21T06:15:15;100698.19;;;7.24;69.03
29825;BME280;16713;52.916;12.834;2023-11-21T06:17:42;100704.44;;;7.24;69.61
29825;BME280;16713;52.916;12.834;2023-11-21T06:20:11;100718.88;;;7.25;68.79
29825;BME280;16713;52.916;12.834;2023-11-21T06:22:42;100715.03;;;7.26;69.84
29825;BME280;16713;52.916;12.834;2023-11-21T06:25:10;100717.75;;;7.26;69.36
29825;BME280;16713;52.916;12.834;2023-11-21T06:30:07;100726.41;;;7.28;69.90
29825;BME280;16713;52.916;12.834;2023-11-21T06:32:36;100725.66;;;7.19;69.04
29825;BME280;16713;52.916;12.834;2023-11-21T06:35:04;100726.59;;;7.23;69.44
29825;BME280;16713;52.916;12.834;2023-11-21T06:37:31;100724.22;;;7.21;69.13
29825;BME280;16713;52.916;12.834;2023-11-21T06:39:59;100731.41;;;7.26;68.47
29825;BME280;16713;52.916;12.834;2023-11-21T06:42:26;100735.91;;;7.22;68.02
29825;BME280;16713;52.916;12.834;2023-11-21T06:44:55;100732.91;;;7.15;68.97
29825;BME280;16713;52.916;12.834;2023-11-21T06:47:24;100744.78;;;7.10;68.36
29825;BME280;16713;52.916;12.834;2023-11-21T06:49:56;100738.47;;;6.98;68.93
29825;BME280;16713;52.916;12.834;2023-11-21T06:52:23;100743.84;;;6.86;68.65
29825;BME280;16713;52.916;12.834;2023-11-21T06:54:50;100752.25;;;7.01;69.01
29825;BME280;16713;52.916;12.834;2023-11-21T06:57:16;100747.44;;;6.98;69.10
29825;BME280;16713;52.916;12.834;2023-11-21T06:59:44;100757.41;;;6.94;67.84
29825;BME280;16713;52.916;12.834;2023-11-21T07:02:10;100756.00;;;6.88;68.12
29825;BME280;16713;52.916;12.834;2023-11-21T07:04:37;100754.22;;;6.92;68.67
29825;BME280;16713;52.916;12.834;2023-11-21T07:07:04;100765.72;;;6.98;68.99
29825;BME280;16713;52.916;12.834;2023-11-21T07:09:33;100767.00;;;7.00;68.38
29825;BME280;16713;52.916;12.834;2023-11-21T07:11:59;100771.81;;;7.03;68.03
29825;BME280;16713;52.916;12.834;2023-11-21T07:14:26;100777.84;;;7.09;69.28
29825;BME280;16713;52.916;12.834;2023-11-21T07:16:52;100778.19;;;7.07;68.68
29825;BME280;16713;52.916;12.834;2023-11-21T07:19:19;100776.44;;;7.03;69.44
29825;BME280;16713;52.916;12.834;2023-11-21T07:21:46;100779.97;;;7.03;67.78
29825;BME280;16713;52.916;12.834;2023-11-21T07:24:13;100789.41;;;7.06;68.25
29825;BME280;16713;52.916;12.834;2023-11-21T07:26:39;100795.34;;;7.08;67.97
29825;BME280;16713;52.916;12.834;2023-11-21T07:29:06;100802.06;;;7.10;68.17
29825;BME280;16713;52.916;12.834;2023-11-21T07:31:33;100806.41;;;7.11;67.55
29825;BME280;16713;52.916;12.834;2023-11-21T07:34:02;100806.03;;;6.92;68.48
29825;BME280;16713;52.916;12.834;2023-11-21T07:36:29;100800.25;;;6.94;67.73
29825;BME280;16713;52.916;12.834;2023-11-21T07:38:55;100803.75;;;6.94;67.60
29825;BME280;16713;52.916;12.834;2023-11-21T07:41:22;100805.03;;;6.97;68.33
29825;BME280;16713;52.916;12.834;2023-11-21T07:43:56;100814.38;;;6.87;67.59
29825;BME280;16713;52.916;12.834;2023-11-21T07:46:23;100817.09;;;6.87;67.65
29825;BME280;16713;52.916;12.834;2023-11-21T07:48:50;100816.63;;;6.85;67.88
29825;BME280;16713;52.916;12.834;2023-11-21T07:51:19;100820.81;;;6.83;67.00
29825;BME280;16713;52.916;12.834;2023-11-21T07:53:45;100816.16;;;6.83;67.19
29825;BME280;16713;52.916;12.834;2023-11-21T07:56:12;100824.81;;;6.85;67.34
29825;BME280;16713;52.916;12.834;2023-11-21T07:58:39;100823.06;;;6.81;67.31
29825;BME280;16713;52.916;12.834;2023-11-21T08:01:06;100826.78;;;6.68;67.38
29825;BME280;16713;52.916;12.834;2023-11-21T08:03:33;100833.06;;;6.60;67.04
29825;BME280;16713;52.916;12.834;2023-11-21T08:05:59;100839.09;;;6.74;66.78
29825;BME280;16713;52.916;12.834;2023-11-21T08:08:26;100844.09;;;6.72;67.60
29825;BME280;16713;52.916;12.834;2023-11-21T08:10:54;100849.69;;;6.75;66.93
29825;BME280;16713;52.916;12.834;2023-11-21T08:13:26;100851.47;;;6.71;67.12
29825;BME280;16713;52.916;12.834;2023-11-21T08:15:55;100856.28;;;6.74;67.28
29825;BME280;16713;52.916;12.834;2023-11-21T08:18:22;100855.13;;;6.75;66.72
29825;BME280;16713;52.916;12.834;2023-11-21T08:20:49;100854.59;;;6.44;66.56
29825;BME280;16713;52.916;12.834;2023-11-21T08:23:16;100854.38;;;6.58;66.91
29825;BME280;16713;52.916;12.834;2023-11-21T08:25:45;100867.88;;;6.37;66.99
29825;BME280;16713;52.916;12.834;2023-11-21T08:28:12;100865.00;;;6.42;66.28
29825;BME280;16713;52.916;12.834;2023-11-21T08:30:42;100876.34;;;6.53;66.70
29825;BME280;16713;52.916;12.834;2023-11-21T08:33:09;100874.94;;;6.29;66.83
29825;BME280;16713;52.916;12.834;2023-11-21T08:35:37;100877.66;;;6.38;66.77
29825;BME280;16713;52.916;12.834;2023-11-21T08:38:04;100884.22;;;6.37;66.57
29825;BME280;16713;52.916;12.834;2023-11-21T08:40:31;100881.66;;;6.49;66.79
29825;BME280;16713;52.916;12.834;2023-11-21T08:42:57;100888.53;;;6.38;66.79
29825;BME280;16713;52.916;12.834;2023-11-21T08:45:27;100888.41;;;6.35;67.25
29825;BME280;16713;52.916;12.834;2023-11-21T08:47:53;100895.09;;;6.54;66.63
29825;BME280;16713;52.916;12.834;2023-11-21T08:50:20;100900.22;;;6.64;66.77
29825;BME280;16713;52.916;12.834;2023-11-21T08:52:47;100909.81;;;6.70;67.97
29825;BME280;16713;52.916;12.834;2023-11-21T08:55:14;100912.53;;;6.70;66.20
29825;BME280;16713;52.916;12.834;2023-11-21T08:57:43;100919.13;;;6.78;66.91
29825;BME280;16713;52.916;12.834;2023-11-21T09:00:11;100919.72;;;6.83;66.03
29825;BME280;16713;52.916;12.834;2023-11-21T09:02:39;100919.59;;;6.80;66.26
29825;BME280;16713;52.916;12.834;2023-11-21T09:05:09;100922.28;;;6.88;67.04
29825;BME280;16713;52.916;12.834;2023-11-21T09:07:37;100924.69;;;6.90;66.26
29825;BME280;16713;52.916;12.834;2023-11-21T09:10:04;100924.03;;;6.93;66.63
29825;BME280;16713;52.916;12.834;2023-11-21T09:12:34;100925.50;;;6.82;66.09
29825;BME280;16713;52.916;12.834;2023-11-21T09:15:06;100932.25;;;6.84;66.09
29825;BME280;16713;52.916;12.834;2023-11-21T09:17:33;100932.88;;;6.90;66.00
29825;BME280;16713;52.916;12.834;2023-11-21T09:20:04;100932.41;;;6.88;65.22
29825;BME280;16713;52.916;12.834;2023-11-21T09:22:32;100942.84;;;6.86;64.94
29825;BME280;16713;52.916;12.834;2023-11-21T09:24:59;100933.53;;;6.78;64.66
29825;BME280;16713;52.916;12.834;2023-11-21T09:27:26;100944.75;;;6.85;65.94
29825;BME280;16713;52.916;12.834;2023-11-21T09:29:52;100948.63;;;6.84;65.85
29825;BME280;16713;52.916;12.834;2023-11-21T09:32:20;100950.19;;;6.85;65.87
29825;BME280;16713;52.916;12.834;2023-11-21T09:34:51;100964.47;;;6.82;66.08
29825;BME280;16713;52.916;12.834;2023-11-21T09:37:17;100951.50;;;6.79;65.60
29825;BME280;16713;52.916;12.834;2023-11-21T09:39:45;100956.78;;;6.84;65.73
29825;BME280;16713;52.916;12.834;2023-11-21T09:47:39;100964.00;;;6.80;65.52
29825;BME280;16713;52.916;12.834;2023-11-21T09:50:06;100970.25;;;6.72;65.44
29825;BME280;16713;52.916;12.834;2023-11-21T09:52:49;100974.28;;;6.66;65.73
29825;BME280;16713;52.916;12.834;2023-11-21T09:55:18;100977.31;;;6.65;64.68
29825;BME280;16713;52.916;12.834;2023-11-21T09:57:48;100982.47;;;6.49;64.37
29825;BME280;16713;52.916;12.834;2023-11-21T10:00:16;100973.66;;;6.44;65.04
29825;BME280;16713;52.916;12.834;2023-11-21T10:02:47;100989.50;;;6.50;64.87
29825;BME280;16713;52.916;12.834;2023-11-21T10:05:14;100986.13;;;6.53;65.17
29825;BME280;16713;52.916;12.834;2023-11-21T10:07:43;100990.47;;;6.54;65.58
29825;BME280;16713;52.916;12.834;2023-11-21T10:10:11;100989.84;;;6.57;65.14
29825;BME280;16713;52.916;12.834;2023-11-21T10:12:38;100992.25;;;6.59;65.63
29825;BME280;16713;52.916;12.834;2023-11-21T10:15:08;101004.41;;;6.61;65.12
29825;BME280;16713;52.916;12.834;2023-11-21T10:17:39;101008.59;;;6.50;64.03
29825;BME280;16713;52.916;12.834;2023-11-21T10:20:12;101005.38;;;6.40;62.51
29825;BME280;16713;52.916;12.834;2023-11-21T10:22:41;101001.94;;;6.25;62.80
29825;BME280;16713;52.916;12.834;2023-11-21T10:25:11;101009.03;;;6.26;62.20
29825;BME280;16713;52.916;12.834;2023-11-21T10:27:41;101008.03;;;6.22;61.96
29825;BME280;16713;52.916;12.834;2023-11-21T10:30:08;101013.63;;;6.17;62.09
29825;BME280;16713;52.916;12.834;2023-11-21T10:32:39;101022.91;;;5.99;61.50
29825;BME280;16713;52.916;12.834;2023-11-21T10:35:08;101032.50;;;6.05;61.71
29825;BME280;16713;52.916;12.834;2023-11-21T10:37:39;101038.75;;;6.06;62.17
29825;BME280;16713;52.916;12.834;2023-11-21T10:40:08;101035.25;;;6.05;61.46
29825;BME280;16713;52.916;12.834;2023-11-21T10:42:39;101039.06;;;6.04;62.01
29825;BME280;16713;52.916;12.834;2023-11-21T10:45:08;101049.63;;;5.97;61.57
29825;BME280;16713;52.916;12.834;2023-11-21T10:47:41;101048.34;;;6.03;61.61
29825;BME280;16713;52.916;12.834;2023-11-21T10:50:08;101046.22;;;5.92;62.33
29825;BME280;16713;52.916;12.834;2023-11-21T10:52:40;101052.84;;;6.08;62.38
29825;BME280;16713;52.916;12.834;2023-11-21T10:55:19;101057.19;;;6.17;61.64
29825;BME280;16713;52.916;12.834;2023-11-21T10:57:48;101057.03;;;6.14;61.75
29825;BME280;16713;52.916;12.834;2023-11-21T11:00:16;101055.56;;;6.08;60.80
29825;BME280;16713;52.916;12.834;2023-11-21T11:02:47;101056.03;;;6.01;61.17
29825;BME280;16713;52.916;12.834;2023-11-21T11:05:19;101060.38;;;6.11;60.74
29825;BME280;16713;52.916;12.834;2023-11-21T11:07:48;101058.50;;;6.20;60.59
29825;BME280;16713;52.916;12.834;2023-11-21T11:10:21;101067.31;;;6.17;61.21
29825;BME280;16713;52.916;12.834;2023-11-21T11:12:49;101077.25;;;6.21;61.06
29825;BME280;16713;52.916;12.834;2023-11-21T11:15:16;101083.47;;;6.22;60.80
29825;BME280;16713;52.916;12.834;2023-11-21T11:17:45;101085.75;;;6.20;61.05
29825;BME280;16713;52.916;12.834;2023-11-21T11:20:13;101091.50;;;6.27;60.87
29825;BME280;16713;52.916;12.834;2023-11-21T11:25:49;101096.06;;;6.32;61.57
29825;BME280;16713;52.916;12.834;2023-11-21T11:28:27;101102.84;;;6.12;60.30
29825;BME280;16713;52.916;12.834;2023-11-21T11:31:18;101106.81;;;6.06;60.12
29825;BME280;16713;52.916;12.834;2023-11-21T11:36:35;101113.44;;;6.13;59.25
29825;BME280;16713;52.916;12.834;2023-11-21T11:39:03;101120.66;;;6.18;59.43
29825;BME280;16713;52.916;12.834;2023-11-21T11:41:50;101116.34;;;6.25;60.65
29825;BME280;16713;52.916;12.834;2023-11-21T11:47:21;101127.44;;;6.29;59.55
29825;BME280;16713;52.916;12.834;2023-11-21T11:50:10;101122.09;;;6.15;58.95
29825;BME280;16713;52.916;12.834;2023-11-21T11:52:45;101126.91;;;6.27;59.40
29825;BME280;16713;52.916;12.834;2023-11-21T11:55:14;101131.94;;;6.33;59.86
29825;BME280;16713;52.916;12.834;2023-11-21T11:57:42;101139.00;;;6.35;59.14
29825;BME280;16713;52.916;12.834;2023-11-21T12:02:49;101127.31;;;6.34;58.53
29825;BME280;16713;52.916;12.834;2023-11-21T12:05:17;101133.41;;;6.40;59.72
29825;BME280;16713;52.916;12.834;2023-11-21T12:07:50;101133.88;;;6.42;58.98
29825;BME280;16713;52.916;12.834;2023-11-21T12:10:20;101147.19;;;6.43;60.37
29825;BME280;16713;52.916;12.834;2023-11-21T12:12:48;101132.78;;;6.43;60.25
29825;BME280;16713;52.916;12.834;2023-11-21T12:15:16;101150.44;;;6.54;60.18
29825;BME280;16713;52.916;12.834;2023-11-21T12:17:43;101141.94;;;6.55;60.73
29825;BME280;16713;52.916;12.834;2023-11-21T12:20:12;101142.59;;;6.52;60.91
29825;BME280;16713;52.916;12.834;2023-11-21T12:23:01;101156.22;;;6.61;61.08
29825;BME280;16713;52.916;12.834;2023-11-21T12:25:29;101156.38;;;6.64;60.92
29825;BME280;16713;52.916;12.834;2023-11-21T12:27:59;101163.78;;;6.64;59.00
29825;BME280;16713;52.916;12.834;2023-11-21T12:30:28;101176.25;;;6.56;57.94
29825;BME280;16713;52.916;12.834;2023-11-21T12:32:58;101183.63;;;6.64;56.35
29825;BME280;16713;52.916;12.834;2023-11-21T12:35:34;101184.28;;;6.61;55.97
29825;BME280;16713;52.916;12.834;2023-11-21T12:38:03;101188.59;;;6.54;56.27
29825;BME280;16713;52.916;12.834;2023-11-21T12:40:30;101197.88;;;6.53;55.06
29825;BME280;16713;52.916;12.834;2023-11-21T12:42:58;101198.81;;;6.48;55.70
29825;BME280;16713;52.916;12.834;2023-11-21T12:45:27;101203.94;;;6.41;55.88
29825;BME280;16713;52.916;12.834;2023-11-21T12:48:05;101206.63;;;6.32;55.05
29825;BME280;16713;52.916;12.834;2023-11-21T12:50:35;101207.56;;;6.28;54.48
29825;BME280;16713;52.916;12.834;2023-11-21T12:53:11;101202.28;;;6.32;53.81
29825;BME280;16713;52.916;12.834;2023-11-21T12:55:43;101218.63;;;6.32;54.97
29825;BME280;16713;52.916;12.834;2023-11-21T12:58:16;101224.97;;;6.27;54.10
29825;BME280;16713;52.916;12.834;2023-11-21T13:00:45;101225.28;;;6.25;54.03
29825;BME280;16713;52.916;12.834;2023-11-21T13:03:14;101225.28;;;6.25;54.84
29825;BME280;16713;52.916;12.834;2023-11-21T13:05:47;101241.31;;;6.27;54.36
29825;BME280;16713;52.916;12.834;2023-11-21T13:08:19;101248.41;;;6.28;54.80
29825;BME280;16713;52.916;12.834;2023-11-21T13:10:51;101261.63;;;6.21;55.55
29825;BME280;16713;52.916;12.834;2023-11-21T13:13:18;101262.44;;;6.21;55.64
29825;BME280;16713;52.916;12.834;2023-11-21T13:15:54;101257.31;;;6.20;55.00
29825;BME280;16713;52.916;12.834;2023-11-21T13:18:28;101260.03;;;6.20;55.08
29825;BME280;16713;52.916;12.834;2023-11-21T13:20:57;101274.13;;;6.22;55.05